createdAt,value
2018-05-16T00:00:54.986Z,101307.61
2018-05-16T00:05:55.967Z,101302.56
2018-05-16T00:10:56.999Z,101307.33
2018-05-16T00:15:57.988Z,101300.99
2018-05-16T00:20:58.979Z,101286.27
2018-05-16T00:25:59.974Z,101297.64
2018-05-16T00:31:00.947Z,101296.69
2018-05-16T00:36:01.938Z,101276.36
2018-05-16T00:41:02.913Z,101279.94
2018-05-16T00:46:03.894Z,101271.80
2018-05-16T00:51:17.217Z,101269.53
2018-05-16T00:56:18.170Z,101270.68
2018-05-16T01:01:19.192Z,101266.75
2018-05-16T01:06:20.179Z,101268.80
2018-05-16T01:11:21.168Z,101274.18
2018-05-16T01:16:22.141Z,101257.11
2018-05-16T01:21:23.138Z,101255.39
2018-05-16T01:26:24.107Z,101254.45
2018-05-16T01:31:25.091Z,101251.95
2018-05-16T01:36:26.081Z,101259.45
2018-05-16T01:41:27.052Z,101250.25
2018-05-16T01:46:28.017Z,101247.69
2018-05-16T01:51:29.002Z,101250.91
2018-05-16T01:56:29.989Z,101246.30
2018-05-16T02:01:30.952Z,101242.09
2018-05-16T02:06:31.917Z,101238.77
2018-05-16T02:11:32.911Z,101231.42
2018-05-16T02:16:33.884Z,101229.13
2018-05-16T02:21:34.857Z,101229.11
2018-05-16T02:26:35.844Z,101220.69
2018-05-16T02:31:43.683Z,101219.72
2018-05-16T02:36:44.691Z,101213.47
2018-05-16T02:41:45.606Z,101215.86
2018-05-16T02:46:46.568Z,101216.07
2018-05-16T02:51:47.578Z,101210.02
2018-05-16T02:56:48.556Z,101206.73
2018-05-16T03:01:49.590Z,101207.52
2018-05-16T03:06:50.592Z,101206.45
2018-05-16T03:11:51.754Z,101206.89
2018-05-16T03:16:52.760Z,101207.47
2018-05-16T03:21:53.714Z,101207.88
2018-05-16T03:26:54.686Z,101204.03
2018-05-16T03:31:55.648Z,101202.59
2018-05-16T03:36:56.625Z,101200.09
2018-05-16T03:41:57.589Z,101201.88
2018-05-16T03:46:58.562Z,101203.70
2018-05-16T03:51:59.560Z,101202.53
2018-05-16T03:57:00.540Z,101204.86
2018-05-16T04:02:13.784Z,101200.30
2018-05-16T04:07:14.746Z,101196.69
2018-05-16T04:12:15.768Z,101204.38
2018-05-16T04:17:16.729Z,101199.02
2018-05-16T04:22:17.725Z,101201.98
2018-05-16T04:27:18.740Z,101205.58
2018-05-16T04:32:19.737Z,101203.48
2018-05-16T04:37:20.738Z,101201.56
2018-05-16T04:42:21.702Z,101197.13
2018-05-16T04:47:22.666Z,101199.00
2018-05-16T04:52:23.647Z,101196.50
2018-05-16T04:57:24.628Z,101198.52
2018-05-16T05:02:25.588Z,101198.41
2018-05-16T05:07:26.565Z,101194.59
2018-05-16T05:12:27.568Z,101194.95
2018-05-16T05:17:28.549Z,101197.78
2018-05-16T05:22:29.564Z,101192.67
2018-05-16T05:27:30.561Z,101188.88
2018-05-16T05:32:31.550Z,101182.65
2018-05-16T05:37:32.516Z,101181.84
2018-05-16T05:42:33.489Z,101187.25
2018-05-16T05:47:34.465Z,101186.17
2018-05-16T05:52:35.446Z,101186.72
2018-05-16T05:57:36.444Z,101189.58
2018-05-16T06:02:37.414Z,101192.33
2018-05-16T06:07:38.363Z,101197.13
2018-05-16T06:12:39.405Z,101196.91
2018-05-16T06:17:40.387Z,101204.88
2018-05-16T06:22:41.375Z,101201.12
2018-05-16T06:27:42.359Z,101190.06
2018-05-16T06:32:43.424Z,101196.08
2018-05-16T06:37:44.384Z,101197.35
2018-05-16T06:42:45.345Z,101198.69
2018-05-16T06:47:46.314Z,101200.42
2018-05-16T06:52:47.357Z,101197.86
2018-05-16T06:57:48.353Z,101207.69
2018-05-16T07:02:49.323Z,101208.53
2018-05-16T07:07:50.323Z,101207.69
2018-05-16T07:12:51.408Z,101202.56
2018-05-16T07:17:52.393Z,101209.84
2018-05-16T07:22:53.380Z,101210.25
2018-05-16T07:27:54.360Z,101223.12
2018-05-16T07:32:55.390Z,101215.83
2018-05-16T07:37:56.390Z,101228.25
2018-05-16T07:42:57.376Z,101225.24
2018-05-16T07:47:58.426Z,101227.40
2018-05-16T07:52:59.453Z,101228.25
2018-05-16T07:58:00.449Z,101232.98
2018-05-16T08:03:01.425Z,101227.84
2018-05-16T08:08:02.457Z,101224.83
2018-05-16T08:13:03.476Z,101230.81
2018-05-16T08:18:04.488Z,101235.10
2018-05-16T08:23:05.469Z,101223.52
2018-05-16T08:28:07.094Z,101226.09
2018-05-16T08:33:08.067Z,101226.11
2018-05-16T08:38:09.018Z,101227.81
2018-05-16T08:43:09.983Z,101229.97
2018-05-16T08:48:10.979Z,101236.39
2018-05-16T08:53:11.952Z,101234.26
2018-05-16T08:58:13.107Z,101236.41
2018-05-16T09:03:14.153Z,101230.33
2018-05-16T09:08:15.148Z,101231.24
2018-05-16T09:13:16.168Z,101237.17
2018-05-16T09:18:17.137Z,101236.38
2018-05-16T09:23:18.113Z,101239.34
2018-05-16T09:28:19.184Z,101241.85
2018-05-16T09:43:00.175Z,101242.16
2018-05-16T09:48:01.143Z,101248.22
2018-05-16T09:53:02.168Z,101244.72
2018-05-16T09:58:04.173Z,101244.46
2018-05-16T10:03:05.163Z,101237.55
2018-05-16T10:08:06.130Z,101242.63
2018-05-16T10:13:07.160Z,101238.25
2018-05-16T10:18:08.211Z,101236.70
2018-05-16T10:23:09.280Z,101227.18
2018-05-16T10:28:10.289Z,101223.37
2018-05-16T10:33:11.290Z,101223.22
2018-05-16T10:38:12.275Z,101223.64
2018-05-16T10:43:13.261Z,101233.84
2018-05-16T10:48:21.115Z,101230.00
2018-05-16T10:53:22.093Z,101227.33
2018-05-16T10:58:23.083Z,101235.53
2018-05-16T11:03:24.091Z,101229.64
2018-05-16T11:08:25.068Z,101232.81
2018-05-16T11:13:26.027Z,101223.28
2018-05-16T11:18:27.052Z,101230.50
2018-05-16T11:23:28.012Z,101228.20
2018-05-16T11:28:29.935Z,101226.52
2018-05-16T11:33:30.938Z,101225.67
2018-05-16T11:38:31.900Z,101219.83
2018-05-16T11:43:32.905Z,101219.83
2018-05-16T11:48:33.882Z,101221.48
2018-05-16T11:53:34.904Z,101212.00
2018-05-16T11:58:35.881Z,101217.56
2018-05-16T12:03:36.858Z,101219.73
2018-05-16T12:08:37.897Z,101214.71
2018-05-16T12:13:38.895Z,101220.24
2018-05-16T12:18:39.934Z,101222.16
2018-05-16T12:23:40.913Z,101222.18
2018-05-16T12:28:41.890Z,101221.28
2018-05-16T12:33:42.881Z,101213.00
2018-05-16T12:38:43.869Z,101228.36
2018-05-16T12:43:44.885Z,101229.67
2018-05-16T12:48:45.883Z,101215.28
2018-05-16T12:53:46.899Z,101222.27
2018-05-16T12:58:47.951Z,101220.56
2018-05-16T13:03:48.974Z,101212.91
2018-05-16T13:08:50.084Z,101213.08
2018-05-16T13:13:51.005Z,101216.70
2018-05-16T13:18:52.046Z,101227.17
2018-05-16T13:23:53.043Z,101222.05
2018-05-16T13:28:54.035Z,101224.48
2018-05-16T13:33:55.035Z,101215.82
2018-05-16T13:38:56.064Z,101224.64
2018-05-16T13:43:57.135Z,101219.11
2018-05-16T13:48:58.162Z,101212.59
2018-05-16T13:53:59.176Z,101216.80
2018-05-16T13:59:00.174Z,101223.46
2018-05-16T14:04:01.172Z,101206.87
2018-05-16T14:09:02.192Z,101221.30
2018-05-16T14:14:03.201Z,101205.92
2018-05-16T14:19:04.255Z,101223.89
2018-05-16T14:24:05.245Z,101218.06
2018-05-16T14:29:06.236Z,101208.28
2018-05-16T14:34:07.228Z,101209.20
2018-05-16T14:39:08.246Z,101212.28
2018-05-16T14:44:09.287Z,101202.38
2018-05-16T14:49:10.291Z,101200.99
2018-05-16T14:54:11.277Z,101194.00
2018-05-16T14:59:12.308Z,101191.05
2018-05-16T15:04:13.334Z,101188.95
2018-05-16T15:09:14.349Z,101180.30
2018-05-16T15:14:15.339Z,101186.03
2018-05-16T15:19:16.397Z,101187.52
2018-05-16T15:24:17.407Z,101175.13
2018-05-16T15:29:18.392Z,101167.90
2018-05-16T15:34:19.379Z,101171.67
2018-05-16T15:39:20.368Z,101162.03
2018-05-16T15:44:21.352Z,101163.81
2018-05-16T15:49:22.324Z,101160.50
2018-05-16T15:54:23.324Z,101161.67
2018-05-16T15:59:24.333Z,101160.80
2018-05-16T16:04:25.352Z,101165.39
2018-05-16T16:09:26.372Z,101172.36
2018-05-16T16:14:27.383Z,101162.91
2018-05-16T16:19:28.423Z,101152.39
2018-05-16T16:24:29.414Z,101162.02
2018-05-16T16:29:30.439Z,101150.09
2018-05-16T16:34:31.464Z,101144.12
2018-05-16T16:39:32.451Z,101148.21
2018-05-16T16:44:33.481Z,101139.14
2018-05-16T16:49:34.502Z,101140.40
2018-05-16T16:54:35.517Z,101137.73
2018-05-16T16:59:36.536Z,101141.80
2018-05-16T17:04:37.650Z,101136.52
2018-05-16T17:09:38.572Z,101137.55
2018-05-16T17:14:39.597Z,101133.13
2018-05-16T17:19:40.662Z,101147.50
2018-05-16T17:24:41.679Z,101144.63
2018-05-16T17:29:42.703Z,101159.84
2018-05-16T17:34:43.723Z,101161.66
2018-05-16T17:39:44.787Z,101165.77
2018-05-16T17:44:45.861Z,101166.09
2018-05-16T17:49:46.900Z,101171.20
2018-05-16T17:54:47.922Z,101166.88
2018-05-16T17:59:48.949Z,101171.67
2018-05-16T18:04:50.756Z,101173.97
2018-05-16T18:09:51.773Z,101179.00
2018-05-16T18:15:11.988Z,101184.09
2018-05-16T18:20:13.024Z,101189.89
2018-05-16T18:25:14.026Z,101186.63
2018-05-16T18:30:15.058Z,101188.44
2018-05-16T18:35:16.025Z,101180.83
2018-05-16T18:40:17.040Z,101192.89
2018-05-16T18:45:18.059Z,101195.13
2018-05-16T18:50:19.100Z,101199.08
2018-05-16T18:55:20.124Z,101199.11
2018-05-16T19:00:21.169Z,101206.41
2018-05-16T19:05:22.187Z,101215.41
2018-05-16T19:10:23.219Z,101224.80
2018-05-16T19:15:24.268Z,101221.30
2018-05-16T19:20:25.341Z,101227.62
2018-05-16T19:25:26.381Z,101222.45
2018-05-16T19:30:27.387Z,101229.13
2018-05-16T19:35:28.439Z,101231.67
2018-05-16T19:40:29.534Z,101234.89
2018-05-16T19:45:30.515Z,101239.48
2018-05-16T19:50:31.579Z,101246.19
2018-05-16T19:55:32.669Z,101260.98
2018-05-16T20:00:33.696Z,101274.29
2018-05-16T20:05:34.754Z,101271.64
2018-05-16T20:10:35.819Z,101269.05
2018-05-16T20:15:36.827Z,101281.78
2018-05-16T20:20:39.612Z,101290.78
2018-05-16T20:25:42.248Z,101291.53
2018-05-16T20:30:44.559Z,101294.83
2018-05-16T20:35:46.359Z,101291.22
2018-05-16T20:40:47.451Z,101291.98
2018-05-16T20:45:48.524Z,101285.48
2018-05-16T20:50:49.580Z,101287.48
2018-05-16T20:55:53.576Z,101292.23
2018-05-16T21:00:54.604Z,101296.98
2018-05-16T21:05:55.577Z,101290.93
2018-05-16T21:10:56.589Z,101303.81
2018-05-16T21:15:57.585Z,101305.57
2018-05-16T21:20:58.607Z,101310.11
2018-05-16T21:25:59.646Z,101308.09
2018-05-16T21:31:00.613Z,101309.69
2018-05-16T21:36:01.582Z,101318.70
2018-05-16T21:41:02.611Z,101321.05
2018-05-16T21:46:03.608Z,101324.42
2018-05-16T21:51:04.589Z,101327.30
2018-05-16T21:56:05.607Z,101324.67
2018-05-16T22:01:06.575Z,101323.50
2018-05-16T22:06:07.599Z,101322.98
2018-05-16T22:11:08.575Z,101322.94
2018-05-16T22:16:09.636Z,101318.42
2018-05-16T22:21:10.654Z,101324.25
2018-05-16T22:26:11.645Z,101330.98
2018-05-16T22:31:18.683Z,101327.78
2018-05-16T22:36:25.752Z,101332.98
2018-05-16T22:41:32.804Z,101335.83
2018-05-16T22:46:33.863Z,101335.70
2018-05-16T22:51:34.841Z,101347.43
2018-05-16T22:56:35.819Z,101341.20
2018-05-16T23:01:36.825Z,101344.45
2018-05-16T23:06:37.808Z,101342.25
2018-05-16T23:11:38.781Z,101336.68
2018-05-16T23:16:39.749Z,101330.09
2018-05-16T23:21:40.731Z,101326.56
2018-05-16T23:26:41.716Z,101324.55
2018-05-16T23:31:42.689Z,101329.84
2018-05-16T23:36:43.653Z,101331.95
2018-05-16T23:41:44.642Z,101331.62
2018-05-16T23:46:45.624Z,101388.80
2018-05-16T23:51:46.605Z,101327.98
2018-05-16T23:56:47.564Z,101334.28
